Time;durP1;ratioP1;P1;durP2;ratioP2;P2;SDS_P1;SDS_P2;PMS_P1;PMS_P2;Temp;Humidity;BMP_temperature;BMP_pressure;BME280_temperature;BME280_humidity;BME280_pressure;Samples;Min_cycle;Max_cycle;Signal;HPM_P1;HPM_P2
2022/02/24 00:00:24;;;;;;;3.40;3.10;;;5.50;99.90;;;;;;5077432;28;20227;-81
2022/02/24 00:02:51;;;;;;;4.18;3.80;;;5.50;99.90;;;;;;5077664;28;20219;-82
2022/02/24 00:05:18;;;;;;;3.60;3.30;;;5.50;99.90;;;;;;5077659;28;20242;-80
2022/02/24 00:07:45;;;;;;;3.70;3.35;;;5.50;99.90;;;;;;5077829;28;20208;-81
2022/02/24 00:10:14;;;;;;;3.75;3.45;;;5.50;99.90;;;;;;5077085;28;20243;-81
2022/02/24 00:12:42;;;;;;;3.78;3.47;;;5.60;99.90;;;;;;5077707;28;20205;-81
2022/02/24 00:15:09;;;;;;;3.85;3.55;;;5.60;99.90;;;;;;5077436;28;20212;-82
2022/02/24 00:17:38;;;;;;;6.18;4.47;;;5.70;99.90;;;;;;5077543;28;20199;-81
2022/02/24 00:20:06;;;;;;;4.00;3.60;;;5.60;99.90;;;;;;5077383;28;20228;-81
2022/02/24 00:22:35;;;;;;;4.88;3.55;;;5.70;99.90;;;;;;5077488;28;20190;-81
2022/02/24 00:25:04;;;;;;;4.22;3.92;;;5.70;99.90;;;;;;5077464;28;20181;-82
2022/02/24 00:27:31;;;;;;;3.72;3.42;;;5.80;99.90;;;;;;5077517;28;20255;-81
2022/02/24 00:29:57;;;;;;;3.80;3.50;;;5.80;99.90;;;;;;5077164;28;20202;-80
2022/02/24 00:32:24;;;;;;;4.00;3.80;;;5.90;99.90;;;;;;5077139;28;20240;-81
2022/02/24 00:34:54;;;;;;;4.10;3.78;;;5.90;99.90;;;;;;5077357;28;20196;-81
2022/02/24 00:37:22;;;;;;;4.07;3.78;;;5.90;99.90;;;;;;5077602;28;20189;-81
2022/02/24 00:39:49;;;;;;;7.03;3.63;;;6.00;99.90;;;;;;5080954;22;20245;-83
2022/02/24 00:42:16;;;;;;;3.88;3.53;;;5.90;99.90;;;;;;5057817;28;20634;-83
2022/02/24 00:44:43;;;;;;;4.78;4.03;;;5.80;99.90;;;;;;5057417;28;20216;-83
2022/02/24 00:47:09;;;;;;;2.70;2.50;;;5.80;99.90;;;;;;5058294;28;20220;-84
2022/02/24 00:49:36;;;;;;;2.90;2.70;;;5.80;99.90;;;;;;5059411;28;20232;-83
2022/02/24 00:52:05;;;;;;;2.95;2.75;;;5.90;99.90;;;;;;5061472;28;20226;-83
2022/02/24 00:54:32;;;;;;;2.67;2.45;;;5.90;99.90;;;;;;5061106;28;20681;-84
2022/02/24 00:56:58;;;;;;;3.00;2.80;;;6.10;99.90;;;;;;5063117;28;20205;-83
2022/02/24 00:59:25;;;;;;;3.42;3.13;;;6.20;99.90;;;;;;5062002;28;20225;-83
2022/02/24 01:01:52;;;;;;;4.28;3.95;;;6.20;99.90;;;;;;5061339;28;20205;-83
2022/02/24 01:04:19;;;;;;;3.47;3.20;;;6.20;99.90;;;;;;5061303;28;20206;-83
2022/02/24 01:06:46;;;;;;;2.80;2.60;;;6.20;99.90;;;;;;5061559;28;20209;-83
2022/02/24 01:09:14;;;;;;;2.90;2.70;;;6.40;99.90;;;;;;5060777;28;20228;-83
2022/02/24 01:11:41;;;;;;;2.75;2.60;;;6.40;99.90;;;;;;5061122;28;20213;-83
2022/02/24 01:14:08;;;;;;;2.97;2.78;;;6.50;99.90;;;;;;5061069;28;20621;-83
2022/02/24 01:16:35;;;;;;;2.47;2.38;;;6.50;99.90;;;;;;5060792;28;20208;-83
2022/02/24 01:19:01;;;;;;;3.05;2.83;;;6.50;99.90;;;;;;5061219;28;20217;-83
2022/02/24 01:21:28;;;;;;;3.25;2.70;;;6.50;99.90;;;;;;5061146;28;20206;-83
2022/02/24 01:23:55;;;;;;;5.95;2.95;;;6.50;99.90;;;;;;5060219;28;20579;-83
2022/02/24 01:26:24;;;;;;;3.28;2.97;;;6.50;99.90;;;;;;5061011;28;20202;-83
2022/02/24 01:28:51;;;;;;;3.00;2.75;;;6.30;99.90;;;;;;5060776;28;20208;-84
2022/02/24 01:31:18;;;;;;;4.95;2.80;;;6.10;99.90;;;;;;5060048;28;20206;-83
2022/02/24 01:33:44;;;;;;;3.63;3.35;;;5.90;99.90;;;;;;5060366;28;20226;-83
2022/02/24 01:36:11;;;;;;;4.18;3.88;;;5.80;99.90;;;;;;5060748;28;20202;-83
2022/02/24 01:38:39;;;;;;;6.15;3.55;;;5.90;99.90;;;;;;5060984;28;20215;-83
2022/02/24 01:41:05;;;;;;;3.83;3.20;;;5.80;99.90;;;;;;5060040;28;20197;-84
2022/02/24 01:43:34;;;;;;;3.33;3.03;;;5.70;99.90;;;;;;5067017;28;20201;-83
2022/02/24 01:46:01;;;;;;;3.22;2.83;;;5.70;99.90;;;;;;5074530;28;20198;-83
2022/02/24 01:48:28;;;;;;;3.75;3.55;;;5.60;99.90;;;;;;5075770;28;20220;-82
2022/02/24 01:50:55;;;;;;;4.07;3.67;;;5.60;99.90;;;;;;5078743;28;20228;-83
2022/02/24 01:53:22;;;;;;;3.67;3.33;;;5.60;99.90;;;;;;5078660;28;20209;-83
2022/02/24 01:55:48;;;;;;;2.95;2.75;;;5.60;99.90;;;;;;5061677;28;20216;-83
2022/02/24 01:58:17;;;;;;;4.18;3.88;;;5.50;99.90;;;;;;5061463;28;20210;-84
2022/02/24 02:00:45;;;;;;;3.22;2.65;;;5.40;99.90;;;;;;5059213;28;20225;-83
2022/02/24 02:03:12;;;;;;;2.70;2.50;;;5.40;99.90;;;;;;5060152;28;20208;-83
2022/02/24 02:05:39;;;;;;;4.28;3.60;;;5.50;99.90;;;;;;5059491;28;20216;-83
2022/02/24 02:08:06;;;;;;;4.40;3.15;;;5.50;99.90;;;;;;5060666;28;20213;-83
2022/02/24 02:10:33;;;;;;;3.92;3.00;;;5.50;99.90;;;;;;5059287;28;20667;-83
2022/02/24 02:13:00;;;;;;;4.53;2.95;;;5.50;99.90;;;;;;5060008;28;20593;-83
2022/02/24 02:15:26;;;;;;;3.20;2.55;;;5.50;99.90;;;;;;5059083;28;20202;-83
2022/02/24 02:17:54;;;;;;;3.63;3.33;;;5.50;99.90;;;;;;5039713;28;20206;-83
2022/02/24 02:20:21;;;;;;;4.03;3.15;;;5.40;99.90;;;;;;5053830;28;20233;-83
2022/02/24 02:22:53;;;;;;;3.35;3.15;;;5.60;99.90;;;;;;5059325;28;20202;-83
2022/02/24 02:25:20;;;;;;;5.25;3.03;;;5.50;99.90;;;;;;5058751;28;20211;-83
2022/02/24 02:27:49;;;;;;;5.25;4.28;;;5.40;99.90;;;;;;5059307;28;20212;-83
2022/02/24 02:30:17;;;;;;;3.90;3.28;;;5.40;99.90;;;;;;5059200;28;20229;-83
2022/02/24 02:32:43;;;;;;;8.43;4.28;;;5.50;99.90;;;;;;5059068;28;20275;-83
2022/02/24 02:35:11;;;;;;;3.88;2.97;;;5.50;99.90;;;;;;5059247;28;20228;-83
2022/02/24 02:37:38;;;;;;;3.92;3.35;;;5.60;99.90;;;;;;5058743;28;20233;-83
2022/02/24 02:40:08;;;;;;;3.50;3.30;;;5.60;99.90;;;;;;5058912;28;20233;-83
2022/02/24 02:42:35;;;;;;;6.50;3.45;;;5.60;99.90;;;;;;5058901;28;20212;-83
2022/02/24 02:45:03;;;;;;;5.25;4.75;;;5.60;99.90;;;;;;5059968;28;20212;-83
2022/02/24 02:47:30;;;;;;;6.75;3.97;;;5.60;99.90;;;;;;5058470;28;20285;-83
2022/02/24 02:49:56;;;;;;;3.10;2.90;;;5.70;99.90;;;;;;5059221;28;20300;-83
2022/02/24 02:52:23;;;;;;;5.68;3.90;;;5.80;99.90;;;;;;5058221;28;20269;-83
2022/02/24 02:54:55;;;;;;;4.18;3.78;;;5.80;99.90;;;;;;5058277;28;20258;-83
2022/02/24 02:57:23;;;;;;;3.88;3.58;;;5.70;99.90;;;;;;5058972;28;20206;-83
2022/02/24 02:59:50;;;;;;;4.35;3.95;;;5.80;99.90;;;;;;5058636;28;20236;-83
2022/02/24 03:02:17;;;;;;;3.70;3.40;;;5.80;99.90;;;;;;5057800;28;20217;-83
2022/02/24 03:04:43;;;;;;;4.78;3.55;;;5.90;99.90;;;;;;5058311;28;20205;-83
2022/02/24 03:07:10;;;;;;;3.47;3.08;;;5.80;99.90;;;;;;5058310;28;20206;-83
2022/02/24 03:09:37;;;;;;;3.17;2.95;;;5.90;99.90;;;;;;5058253;28;20248;-83
2022/02/24 03:12:04;;;;;;;3.50;3.20;;;6.00;99.90;;;;;;5057755;28;20210;-82
2022/02/24 03:14:32;;;;;;;3.70;3.40;;;6.00;99.90;;;;;;5057759;28;20221;-83
2022/02/24 03:16:59;;;;;;;4.38;3.42;;;6.00;99.90;;;;;;5058778;28;20667;-83
2022/02/24 03:19:26;;;;;;;3.78;3.47;;;5.90;99.90;;;;;;5058463;28;20229;-83
2022/02/24 03:21:53;;;;;;;4.50;3.67;;;5.90;99.90;;;;;;5058070;28;20280;-83
2022/02/24 03:24:21;;;;;;;5.68;3.90;;;5.90;99.90;;;;;;5058016;28;20202;-83
2022/02/24 03:26:48;;;;;;;3.30;3.00;;;6.00;99.90;;;;;;5057937;28;20263;-83
2022/02/24 03:29:15;;;;;;;2.92;2.72;;;6.00;99.90;;;;;;5057365;28;20233;-83
2022/02/24 03:31:43;;;;;;;3.13;2.92;;;6.00;99.90;;;;;;5057551;28;20217;-83
2022/02/24 03:34:10;;;;;;;6.75;4.10;;;6.00;99.90;;;;;;5057851;28;20220;-83
2022/02/24 03:36:37;;;;;;;3.38;3.08;;;6.10;99.90;;;;;;5058481;28;20221;-83
2022/02/24 03:39:04;;;;;;;3.70;3.50;;;6.10;99.90;;;;;;5057015;28;20238;-82
2022/02/24 03:41:31;;;;;;;4.38;3.40;;;6.20;99.90;;;;;;5057515;28;20213;-82
2022/02/24 03:43:58;;;;;;;4.45;4.00;;;6.10;99.90;;;;;;5056998;28;20213;-83
2022/02/24 03:46:25;;;;;;;4.20;3.60;;;6.20;99.90;;;;;;5057668;28;20209;-83
2022/02/24 03:48:53;;;;;;;3.17;2.97;;;6.10;99.90;;;;;;5057761;28;20248;-83
2022/02/24 03:51:20;;;;;;;3.05;2.50;;;6.10;99.90;;;;;;5057274;28;20217;-82
2022/02/24 03:53:47;;;;;;;6.53;2.67;;;6.10;99.90;;;;;;5057409;28;20226;-82
2022/02/24 03:56:13;;;;;;;4.30;2.88;;;6.10;99.90;;;;;;5057608;28;20209;-82
2022/02/24 03:58:40;;;;;;;3.20;3.00;;;6.00;99.90;;;;;;5057161;28;20205;-82
2022/02/24 04:01:07;;;;;;;4.40;4.03;;;6.00;99.90;;;;;;5056861;28;20202;-82
2022/02/24 04:03:34;;;;;;;5.57;3.45;;;6.00;99.90;;;;;;5056863;28;20202;-83
2022/02/24 04:06:02;;;;;;;3.75;3.45;;;6.00;99.90;;;;;;5057219;28;20222;-83
2022/02/24 04:08:29;;;;;;;5.13;3.65;;;5.90;99.90;;;;;;5056951;28;20205;-82
2022/02/24 04:10:56;;;;;;;4.28;2.72;;;6.00;99.90;;;;;;5057112;28;20228;-82
2022/02/24 04:13:23;;;;;;;4.32;3.40;;;6.00;99.90;;;;;;5056528;28;20694;-82
2022/02/24 04:15:49;;;;;;;3.10;2.90;;;5.80;99.90;;;;;;5056890;28;20219;-83
2022/02/24 04:18:16;;;;;;;3.70;3.40;;;5.80;99.90;;;;;;5056360;28;20735;-83
2022/02/24 04:20:43;;;;;;;3.42;3.13;;;5.70;99.90;;;;;;5057034;28;20228;-83
2022/02/24 04:23:11;;;;;;;4.38;3.20;;;5.70;99.90;;;;;;5056563;28;20198;-83
2022/02/24 04:25:38;;;;;;;3.47;3.28;;;5.70;99.90;;;;;;5060857;28;20205;-83
2022/02/24 04:28:05;;;;;;;2.83;2.58;;;5.70;99.90;;;;;;5060672;28;20705;-83
2022/02/24 04:30:32;;;;;;;2.70;2.50;;;5.70;99.90;;;;;;5060573;28;20239;-83
2022/02/24 04:32:59;;;;;;;3.17;2.88;;;5.70;99.90;;;;;;5060452;28;20225;-83
2022/02/24 04:35:26;;;;;;;3.88;3.58;;;5.70;99.90;;;;;;5070023;28;20712;-82
2022/02/24 04:37:52;;;;;;;3.65;3.35;;;5.80;99.90;;;;;;5081144;28;20186;-82
2022/02/24 04:40:21;;;;;;;5.97;5.60;;;5.70;99.90;;;;;;5078682;28;20235;-82
2022/02/24 04:42:48;;;;;;;3.72;3.53;;;5.70;99.90;;;;;;5062583;28;20205;-82
2022/02/24 04:45:15;;;;;;;4.30;3.75;;;5.80;99.90;;;;;;5062579;28;20216;-82
2022/02/24 04:47:41;;;;;;;6.65;3.60;;;5.80;99.90;;;;;;5071726;28;20194;-82
2022/02/24 04:50:10;;;;;;;5.03;3.20;;;5.80;99.90;;;;;;5080663;28;20231;-82
2022/02/24 04:52:37;;;;;;;4.72;3.80;;;5.80;99.90;;;;;;5078483;28;20198;-83
2022/02/24 04:55:04;;;;;;;3.75;3.38;;;5.90;99.90;;;;;;5062635;28;20594;-83
2022/02/24 04:57:33;;;;;;;3.20;2.97;;;6.00;99.90;;;;;;5061492;28;20197;-83
2022/02/24 04:59:59;;;;;;;4.35;3.95;;;6.00;99.90;;;;;;5074013;28;20222;-82
2022/02/24 05:02:26;;;;;;;3.45;2.80;;;6.00;99.90;;;;;;5080410;28;20182;-83
2022/02/24 05:04:53;;;;;;;4.10;3.50;;;6.00;99.90;;;;;;5075314;28;20202;-83
2022/02/24 05:07:20;;;;;;;3.13;2.92;;;6.00;99.90;;;;;;5061408;28;20667;-83
2022/02/24 05:09:46;;;;;;;4.30;3.40;;;5.90;99.90;;;;;;5060558;28;20234;-83
2022/02/24 05:12:13;;;;;;;3.40;3.20;;;6.00;99.90;;;;;;5059501;28;20208;-83
2022/02/24 05:14:41;;;;;;;4.13;3.83;;;6.00;99.90;;;;;;5060863;28;20228;-83
2022/02/24 05:17:08;;;;;;;5.53;4.00;;;6.00;99.90;;;;;;5066349;28;20220;-82
2022/02/24 05:19:35;;;;;;;4.07;3.75;;;6.00;99.90;;;;;;5074955;28;20240;-83
2022/02/24 05:22:02;;;;;;;5.03;4.65;;;6.00;99.90;;;;;;5065258;28;20216;-83
2022/02/24 05:24:29;;;;;;;7.20;3.97;;;6.00;99.90;;;;;;5060001;28;20233;-83
2022/02/24 05:26:56;;;;;;;4.80;4.20;;;5.80;99.90;;;;;;5060034;28;20210;-83
2022/02/24 05:29:23;;;;;;;4.10;3.80;;;5.90;99.90;;;;;;5039639;28;20226;-83
2022/02/24 05:31:51;;;;;;;4.63;4.22;;;5.90;99.90;;;;;;5039376;28;20213;-83
2022/02/24 05:34:18;;;;;;;5.30;4.90;;;5.90;99.90;;;;;;5039302;28;20241;-83
2022/02/24 05:36:45;;;;;;;5.25;4.75;;;5.90;99.90;;;;;;5039718;28;20206;-83
2022/02/24 05:39:12;;;;;;;5.82;5.32;;;5.90;99.90;;;;;;5058821;28;20240;-83
2022/02/24 05:41:39;;;;;;;6.57;5.07;;;5.90;99.90;;;;;;5058787;28;20316;-83
2022/02/24 05:44:06;;;;;;;5.38;4.97;;;5.90;99.90;;;;;;5058860;28;20205;-83
2022/02/24 05:46:33;;;;;;;4.13;3.83;;;5.90;99.90;;;;;;5059844;28;20209;-83
2022/02/24 05:49:01;;;;;;;5.63;4.03;;;5.90;99.90;;;;;;5058780;28;20230;-83
2022/02/24 05:51:28;;;;;;;6.20;4.95;;;5.80;99.90;;;;;;5058639;28;20210;-83
2022/02/24 05:53:55;;;;;;;4.80;4.22;;;5.80;99.90;;;;;;5059050;28;20226;-83
2022/02/24 05:56:22;;;;;;;5.40;4.18;;;5.80;99.90;;;;;;5059198;28;20210;-83
2022/02/24 05:58:49;;;;;;;9.70;4.32;;;5.70;99.90;;;;;;5058100;28;20202;-83
2022/02/24 06:01:16;;;;;;;5.15;4.55;;;5.70;99.90;;;;;;5060829;28;20245;-83
2022/02/24 06:03:42;;;;;;;7.63;5.07;;;5.60;99.90;;;;;;5058573;28;20276;-82
2022/02/24 06:06:10;;;;;;;5.60;4.88;;;5.50;99.90;;;;;;5058838;28;20205;-82
2022/02/24 06:08:37;;;;;;;6.85;5.93;;;5.50;99.90;;;;;;5058709;28;20294;-83
2022/02/24 06:11:04;;;;;;;12.88;5.55;;;5.50;99.90;;;;;;5058734;28;20209;-83
2022/02/24 06:13:31;;;;;;;4.85;4.45;;;5.40;99.90;;;;;;5058919;28;20205;-83
2022/02/24 06:15:57;;;;;;;5.05;4.63;;;5.40;99.90;;;;;;5059483;28;20224;-83
2022/02/24 06:18:24;;;;;;;5.00;4.25;;;5.30;99.90;;;;;;5058895;28;20292;-83
2022/02/24 06:20:51;;;;;;;6.65;5.38;;;5.30;99.90;;;;;;5058314;28;20225;-83
2022/02/24 06:23:19;;;;;;;4.63;4.20;;;5.30;99.90;;;;;;5058521;28;20230;-83
2022/02/24 06:25:46;;;;;;;6.68;6.15;;;5.20;99.90;;;;;;5059285;28;20210;-82
2022/02/24 06:28:13;;;;;;;7.65;5.57;;;5.20;99.90;;;;;;5058866;28;20206;-83
2022/02/24 06:30:40;;;;;;;6.45;5.78;;;5.10;99.90;;;;;;5058046;28;20221;-83
2022/02/24 06:33:07;;;;;;;6.50;5.18;;;5.10;99.90;;;;;;5058598;28;20708;-82
2022/02/24 06:35:34;;;;;;;5.68;5.18;;;5.10;99.90;;;;;;5058822;28;20222;-82
2022/02/24 06:38:02;;;;;;;8.25;6.20;;;5.10;99.90;;;;;;5059338;28;20224;-82
2022/02/24 06:40:31;;;;;;;6.38;5.82;;;5.10;99.90;;;;;;5074690;22;20229;-82
2022/02/24 06:42:58;;;;;;;8.80;8.00;;;5.20;99.90;;;;;;5063067;28;20222;-83
2022/02/24 06:45:25;;;;;;;6.85;6.25;;;5.20;99.90;;;;;;5065117;28;20205;-84
2022/02/24 06:47:52;;;;;;;7.13;5.70;;;5.20;99.90;;;;;;5064098;28;20272;-82
2022/02/24 06:50:19;;;;;;;11.77;7.97;;;5.20;99.90;;;;;;5061740;28;20705;-81
2022/02/24 06:52:46;;;;;;;6.75;6.15;;;5.30;99.90;;;;;;5062875;28;20207;-84
2022/02/24 06:55:13;;;;;;;12.05;6.70;;;5.30;99.90;;;;;;5061563;28;20290;-83
2022/02/24 06:57:44;;;;;;;12.98;8.45;;;5.40;99.90;;;;;;5061782;28;20209;-81
2022/02/24 07:00:11;;;;;;;16.80;13.90;;;5.50;99.90;;;;;;5062602;28;20231;-80
2022/02/24 07:02:38;;;;;;;12.75;9.40;;;5.50;99.90;;;;;;5057407;28;20202;-80
2022/02/24 07:05:05;;;;;;;7.28;6.57;;;5.60;99.90;;;;;;5056686;28;20205;-81
2022/02/24 07:07:34;;;;;;;11.27;8.10;;;5.60;99.90;;;;;;5052716;28;20652;-81
2022/02/24 07:10:01;;;;;;;11.63;8.30;;;5.60;99.90;;;;;;5052912;28;20214;-84
2022/02/24 07:12:27;;;;;;;8.45;7.55;;;5.70;99.90;;;;;;5051309;28;20284;-81
2022/02/24 07:14:55;;;;;;;7.35;6.75;;;5.90;99.90;;;;;;5054388;28;20222;-83
2022/02/24 07:17:22;;;;;;;9.20;8.30;;;5.90;99.90;;;;;;5051101;28;20204;-82
2022/02/24 07:19:49;;;;;;;8.63;7.45;;;6.00;99.90;;;;;;5055032;28;20222;-80
2022/02/24 07:22:34;;;;;;;8.80;7.55;;;6.00;99.90;;;;;;5061204;28;20579;-85
2022/02/24 07:25:01;;;;;;;7.57;6.72;;;6.10;99.90;;;;;;5059287;28;20194;-85
2022/02/24 07:33:17;;;;;;;8.07;6.80;;;6.30;99.90;;;;;;5767420;22;20232;-82
2022/02/24 07:35:44;;;;;;;7.88;7.07;;;6.40;99.90;;;;;;5082755;28;20225;-83
2022/02/24 07:38:11;;;;;;;8.02;7.32;;;6.50;99.90;;;;;;5080224;28;20203;-82
2022/02/24 07:40:37;;;;;;;7.97;7.28;;;6.60;99.90;;;;;;5078869;28;20229;-83
2022/02/24 07:43:04;;;;;;;7.55;6.85;;;6.60;99.90;;;;;;5079856;28;20208;-83
2022/02/24 07:45:31;;;;;;;9.05;7.00;;;6.70;99.90;;;;;;5079176;28;20197;-83
2022/02/24 07:47:58;;;;;;;7.97;6.93;;;6.70;99.90;;;;;;5079226;28;20215;-82
2022/02/24 07:50:26;;;;;;;12.27;7.70;;;6.70;99.90;;;;;;5077394;28;20221;-82
2022/02/24 07:52:53;;;;;;;7.47;6.80;;;6.70;99.90;;;;;;5080073;28;20209;-82
2022/02/24 07:55:19;;;;;;;7.40;6.70;;;6.80;99.90;;;;;;5085536;28;20229;-82
2022/02/24 07:57:46;;;;;;;7.45;6.30;;;6.90;99.90;;;;;;5083990;28;20201;-83
2022/02/24 08:00:15;;;;;;;7.00;6.38;;;6.90;99.90;;;;;;5082522;28;20225;-83
2022/02/24 08:02:43;;;;;;;8.88;6.10;;;7.00;99.90;;;;;;5082162;28;20272;-83
2022/02/24 08:05:10;;;;;;;10.07;6.60;;;7.00;99.90;;;;;;5082922;28;20228;-81
2022/02/24 08:07:39;;;;;;;6.13;5.60;;;7.00;99.90;;;;;;5080315;28;20209;-83
2022/02/24 08:10:07;;;;;;;6.00;5.50;;;7.10;99.90;;;;;;5079309;28;20315;-81
2022/02/24 08:12:43;;;;;;;6.28;5.60;;;7.20;99.90;;;;;;5080661;28;20222;-83
2022/02/24 08:15:12;;;;;;;6.43;5.70;;;7.20;99.90;;;;;;5082160;28;20216;-82
2022/02/24 08:17:39;;;;;;;7.07;6.22;;;7.20;99.90;;;;;;5082578;28;20211;-81
2022/02/24 08:20:08;;;;;;;6.03;5.47;;;7.30;99.90;;;;;;5081161;28;20225;-81
2022/02/24 08:22:35;;;;;;;7.68;6.85;;;7.40;99.90;;;;;;5081933;28;20212;-82
2022/02/24 08:25:05;;;;;;;7.10;6.47;;;7.50;99.90;;;;;;5082081;28;20209;-82
2022/02/24 08:27:34;;;;;;;5.90;4.85;;;7.60;99.90;;;;;;5083435;28;20219;-81
2022/02/24 08:30:02;;;;;;;6.53;5.25;;;7.70;99.90;;;;;;5082336;28;20221;-81
2022/02/24 08:32:29;;;;;;;5.93;5.32;;;7.70;99.90;;;;;;5082230;28;20204;-82
2022/02/24 08:34:58;;;;;;;5.97;4.45;;;7.80;99.90;;;;;;5082909;28;20232;-82
2022/02/24 08:37:25;;;;;;;5.22;4.65;;;7.90;99.90;;;;;;5078462;28;20232;-81
2022/02/24 08:39:51;;;;;;;7.82;4.80;;;7.90;99.90;;;;;;5072860;28;20233;-80
2022/02/24 08:42:22;;;;;;;6.35;5.10;;;8.00;99.90;;;;;;5073245;28;20209;-81
2022/02/24 08:44:49;;;;;;;4.55;4.15;;;8.20;99.90;;;;;;5073117;28;20201;-81
2022/02/24 08:47:17;;;;;;;4.82;4.00;;;8.30;99.90;;;;;;5078866;28;20212;-81
2022/02/24 08:49:46;;;;;;;5.15;4.72;;;8.40;99.90;;;;;;5078850;28;20225;-80
2022/02/24 08:52:13;;;;;;;4.60;4.20;;;8.50;99.90;;;;;;5087389;28;20209;-82
2022/02/24 08:54:40;;;;;;;5.00;4.47;;;8.50;99.90;;;;;;5082876;28;20307;-81
2022/02/24 08:57:07;;;;;;;4.07;3.67;;;8.60;99.90;;;;;;5082909;28;20569;-82
2022/02/24 08:59:36;;;;;;;4.63;4.30;;;8.70;99.90;;;;;;5083037;28;20232;-81
2022/02/24 09:02:03;;;;;;;4.68;4.25;;;8.80;99.90;;;;;;5082526;28;20200;-82
2022/02/24 09:04:30;;;;;;;4.63;4.30;;;8.80;99.90;;;;;;5083335;28;20212;-81
2022/02/24 09:06:57;;;;;;;3.80;3.47;;;9.00;99.90;;;;;;5083343;28;20277;-82
2022/02/24 09:09:24;;;;;;;4.80;4.30;;;9.10;99.90;;;;;;5082780;28;20225;-82
2022/02/24 09:11:51;;;;;;;3.55;3.25;;;9.00;99.90;;;;;;5086282;28;20216;-82
2022/02/24 09:14:18;;;;;;;4.10;3.80;;;9.10;99.90;;;;;;5086614;28;20205;-82
2022/02/24 09:16:46;;;;;;;4.35;3.40;;;9.30;99.90;;;;;;5087139;28;20211;-82
2022/02/24 09:19:14;;;;;;;3.10;2.90;;;9.50;99.90;;;;;;5086143;28;20235;-82
2022/02/24 09:21:40;;;;;;;3.35;3.05;;;9.80;99.90;;;;;;5085143;28;20206;-81
2022/02/24 09:24:10;;;;;;;3.42;3.13;;;10.00;99.90;;;;;;5082212;28;20217;-83
2022/02/24 09:26:37;;;;;;;2.55;2.35;;;10.20;99.90;;;;;;5083279;28;20205;-83
2022/02/24 09:29:05;;;;;;;3.60;3.17;;;10.30;99.90;;;;;;5081362;28;20205;-82
2022/02/24 09:31:32;;;;;;;2.90;2.70;;;10.40;99.90;;;;;;5080676;28;20729;-83
2022/02/24 09:34:00;;;;;;;2.47;2.27;;;10.50;99.90;;;;;;5080739;28;20214;-82
2022/02/24 09:36:27;;;;;;;2.85;2.60;;;10.60;99.90;;;;;;5080508;28;20497;-83
2022/02/24 09:38:54;;;;;;;2.22;2.03;;;10.70;99.90;;;;;;5084503;28;20295;-83
2022/02/24 09:41:23;;;;;;;2.50;2.30;;;10.90;99.90;;;;;;5084025;28;20208;-82
2022/02/24 09:43:50;;;;;;;3.27;3.07;;;10.90;99.90;;;;;;5084584;28;20452;-83
2022/02/24 09:46:17;;;;;;;3.23;3.03;;;11.00;99.80;;;;;;5084837;28;20459;-82
2022/02/24 09:48:46;;;;;;;4.33;2.67;;;11.00;99.60;;;;;;5085673;28;20526;-83
2022/02/24 09:51:16;;;;;;;2.17;2.00;;;11.00;99.10;;;;;;5082549;28;20448;-83
2022/02/24 09:53:43;;;;;;;4.40;2.80;;;11.30;99.50;;;;;;5082893;28;20452;-83
2022/02/24 09:56:16;;;;;;;2.87;2.60;;;11.30;99.10;;;;;;5083265;28;21001;-83
2022/02/24 09:58:43;;;;;;;2.00;1.83;;;11.60;98.50;;;;;;5084175;28;20452;-83
2022/02/24 10:01:12;;;;;;;2.67;2.07;;;11.50;98.20;;;;;;5083142;28;20465;-83
2022/02/24 10:03:41;;;;;;;2.90;2.23;;;11.60;98.00;;;;;;5083231;28;20454;-83
2022/02/24 10:06:09;;;;;;;3.00;2.47;;;11.70;98.30;;;;;;5083892;28;20449;-83
2022/02/24 10:08:41;;;;;;;2.33;2.13;;;11.80;98.10;;;;;;5083491;28;20820;-83
2022/02/24 10:11:19;;;;;;;2.83;2.60;;;12.00;98.10;;;;;;5083577;28;20487;-83
2022/02/24 10:13:59;;;;;;;2.30;2.20;;;12.00;97.50;;;;;;5083213;28;20451;-83
2022/02/24 10:16:26;;;;;;;2.20;2.00;;;12.30;97.90;;;;;;5083956;28;20492;-83
2022/02/24 10:18:53;;;;;;;2.90;1.73;;;12.40;96.90;;;;;;5082871;28;20455;-83
2022/02/24 10:21:20;;;;;;;2.73;1.70;;;12.40;95.60;;;;;;5083351;28;20450;-82
2022/02/24 10:23:50;;;;;;;1.87;1.77;;;12.40;95.90;;;;;;5084076;28;20471;-83
2022/02/24 10:26:18;;;;;;;1.70;1.60;;;12.40;95.70;;;;;;5084013;28;20446;-83
2022/02/24 10:28:49;;;;;;;2.10;1.90;;;12.50;95.40;;;;;;5083531;28;20522;-83
2022/02/24 10:31:18;;;;;;;3.30;2.33;;;12.50;95.20;;;;;;5083650;28;20477;-83
2022/02/24 10:33:46;;;;;;;1.70;1.47;;;12.60;94.60;;;;;;5083450;28;20462;-83
2022/02/24 10:36:20;;;;;;;2.87;1.50;;;12.70;94.80;;;;;;5083474;28;20493;-84
2022/02/24 10:39:01;;;;;;;3.50;1.53;;;12.80;95.20;;;;;;5082743;28;20447;-83
2022/02/24 10:41:32;;;;;;;4.00;2.50;;;12.80;94.30;;;;;;5082663;28;20908;-83
2022/02/24 10:44:19;;;;;;;1.80;1.70;;;12.80;94.40;;;;;;5082488;28;20450;-83
2022/02/24 10:46:48;;;;;;;5.00;2.10;;;12.90;94.00;;;;;;5083420;28;20521;-83
2022/02/24 10:49:28;;;;;;;2.97;2.00;;;12.80;94.00;;;;;;5083373;28;20922;-83
2022/02/24 10:52:13;;;;;;;2.80;2.10;;;12.70;94.30;;;;;;5082617;28;20458;-83
2022/02/24 10:54:42;;;;;;;2.53;1.50;;;12.70;93.70;;;;;;5082951;28;20450;-84
2022/02/24 10:57:19;;;;;;;3.40;2.20;;;12.70;94.10;;;;;;5082942;28;20507;-83
2022/02/24 10:59:46;;;;;;;2.00;1.73;;;12.80;93.70;;;;;;5080136;28;20498;-85
2022/02/24 11:02:13;;;;;;;3.07;2.77;;;12.90;93.60;;;;;;5078853;28;20450;-83
2022/02/24 11:04:40;;;;;;;2.30;2.10;;;12.90;93.60;;;;;;5081217;28;20455;-83
2022/02/24 11:07:08;;;;;;;1.93;1.83;;;13.10;93.80;;;;;;5084958;28;20434;-81
2022/02/24 11:09:42;;;;;;;2.23;2.10;;;13.20;93.50;;;;;;5087311;28;20459;-85
2022/02/24 11:12:28;;;;;;;2.13;1.93;;;13.70;93.30;;;;;;5083257;28;20538;-85
2022/02/24 11:14:57;;;;;;;3.57;2.13;;;14.20;92.80;;;;;;5081051;28;20455;-83
2022/02/24 11:17:24;;;;;;;5.20;2.13;;;14.40;91.70;;;;;;5082657;28;20448;-83
2022/02/24 11:19:53;;;;;;;2.27;2.00;;;14.60;91.40;;;;;;5081835;28;20483;-82
2022/02/24 11:22:20;;;;;;;3.10;1.40;;;14.50;90.50;;;;;;5081727;28;20436;-84
2022/02/24 11:24:47;;;;;;;2.30;1.83;;;14.50;90.80;;;;;;5082902;28;20447;-84
2022/02/24 11:27:21;;;;;;;1.60;1.50;;;14.70;90.40;;;;;;5081665;28;20435;-81
2022/02/24 11:29:58;;;;;;;3.00;2.00;;;15.00;90.10;;;;;;5082692;28;20458;-82
2022/02/24 11:32:25;;;;;;;1.30;1.20;;;15.00;87.10;;;;;;5076317;28;20435;-83
2022/02/24 11:34:57;;;;;;;1.53;1.43;;;15.10;87.50;;;;;;5077229;28;20452;-85
2022/02/24 11:37:26;;;;;;;1.50;1.40;;;15.00;86.80;;;;;;5082424;28;20451;-84
2022/02/24 11:39:58;;;;;;;2.67;2.47;;;14.70;85.80;;;;;;5083104;28;20474;-83
2022/02/24 11:42:28;;;;;;;1.07;1.00;;;14.40;85.30;;;;;;5080959;28;20452;-84
2022/02/24 11:44:55;;;;;;;1.57;1.40;;;14.60;86.00;;;;;;5084098;28;20443;-83
2022/02/24 11:47:22;;;;;;;1.50;1.40;;;14.80;84.50;;;;;;5085308;28;20809;-82
2022/02/24 11:50:11;;;;;;;2.57;2.07;;;14.70;83.10;;;;;;5081136;28;20491;-84
2022/02/24 11:52:51;;;;;;;3.90;1.50;;;14.30;82.60;;;;;;5073534;28;20455;-85
2022/02/24 11:55:41;;;;;;;1.70;1.20;;;14.30;83.00;;;;;;5075666;28;20858;-82
2022/02/24 11:58:44;;;;;;;1.83;1.37;;;14.20;83.30;;;;;;5083383;28;20503;-81
2022/02/24 12:01:15;;;;;;;1.67;1.40;;;14.00;81.90;;;;;;5083832;28;20481;-83
2022/02/24 12:04:03;;;;;;;5.53;1.90;;;13.80;81.70;;;;;;5079376;28;20447;-83
2022/02/24 12:06:38;;;;;;;1.47;1.37;;;13.70;82.20;;;;;;5078457;28;20439;-83
2022/02/24 12:09:08;;;;;;;1.57;1.47;;;13.70;81.90;;;;;;5080585;28;20447;-83
2022/02/24 12:11:40;;;;;;;1.77;1.47;;;13.70;83.10;;;;;;5080319;28;20459;-83
2022/02/24 12:14:44;;;;;;;3.40;1.80;;;13.80;84.30;;;;;;5079883;28;20451;-80
2022/02/24 12:21:36;;;;;;;2.10;1.27;;;13.70;82.80;;;;;;4987225;28;20473;-86
2022/02/24 12:24:16;;;;;;;1.30;1.20;;;13.80;81.70;;;;;;5027281;28;20535;-86
2022/02/24 12:26:46;;;;;;;1.73;1.10;;;14.00;82.50;;;;;;5078697;28;20951;-86
2022/02/24 12:29:20;;;;;;;0.97;0.97;;;14.10;82.30;;;;;;5090090;28;20453;-86
2022/02/24 12:31:48;;;;;;;2.63;1.20;;;14.00;80.80;;;;;;5078222;28;20989;-85
2022/02/24 12:34:14;;;;;;;1.43;1.33;;;14.00;81.90;;;;;;5078764;28;20452;-85
2022/02/24 12:36:41;;;;;;;3.80;1.43;;;13.90;81.60;;;;;;5078942;28;20499;-85
2022/02/24 12:39:09;;;;;;;2.70;1.30;;;13.70;81.70;;;;;;5079804;28;20947;-84
2022/02/24 12:41:36;;;;;;;1.77;1.30;;;13.60;82.30;;;;;;5082061;28;20465;-85
2022/02/24 12:44:21;;;;;;;3.33;1.80;;;13.60;83.00;;;;;;5083675;28;20451;-85
2022/02/24 12:46:48;;;;;;;1.27;1.17;;;13.60;83.70;;;;;;5091451;28;20489;-87
2022/02/24 12:49:15;;;;;;;5.30;1.63;;;13.30;82.50;;;;;;5099064;28;20542;-86
2022/02/24 12:51:42;;;;;;;2.87;1.27;;;13.30;82.00;;;;;;5082327;28;20436;-83
2022/02/24 12:54:13;;;;;;;1.20;1.20;;;13.20;82.50;;;;;;5106566;28;20628;-85
2022/02/24 12:56:40;;;;;;;1.57;1.30;;;13.30;83.30;;;;;;5081123;28;20534;-85
2022/02/24 12:59:08;;;;;;;2.67;1.27;;;13.30;82.80;;;;;;5074327;28;20456;-84
2022/02/24 13:01:35;;;;;;;2.20;1.80;;;13.30;82.40;;;;;;5059744;28;20856;-85
2022/02/24 13:04:02;;;;;;;1.90;1.37;;;13.40;82.10;;;;;;5071587;28;20447;-85
2022/02/24 13:06:35;;;;;;;2.27;2.13;;;13.30;82.30;;;;;;5078263;28;20447;-85
2022/02/24 13:11:58;;;;;;;1.37;1.27;;;13.10;82.20;;;;;;5079645;28;20476;-84